Time;durP1;ratioP1;P1;durP2;ratioP2;P2;SDS_P1;SDS_P2;PMS_P1;PMS_P2;Temp;Humidity;BMP_temperature;BMP_pressure;BME280_temperature;BME280_humidity;BME280_pressure;Samples;Min_cycle;Max_cycle;Signal;HPM_P1;HPM_P2
2021/12/27 00:00:58;;;;;;;11.48;5.55;;;-5.10;99.90;;;;;;5059889;28;20676;-72
2021/12/27 00:03:26;;;;;;;8.10;5.10;;;-5.00;99.90;;;;;;5060496;28;20208;-76
2021/12/27 00:05:55;;;;;;;6.72;4.93;;;-5.10;99.90;;;;;;5056322;28;20213;-73
2021/12/27 00:08:24;;;;;;;6.22;5.00;;;-5.10;99.90;;;;;;5059482;28;20342;-75
2021/12/27 00:10:52;;;;;;;10.48;5.95;;;-5.10;99.90;;;;;;5059878;28;20200;-73
2021/12/27 00:13:20;;;;;;;11.00;5.30;;;-5.10;99.90;;;;;;5059689;28;20675;-73
2021/12/27 00:15:48;;;;;;;7.30;5.45;;;-5.10;99.90;;;;;;5062089;28;20225;-73
2021/12/27 00:18:16;;;;;;;8.45;5.70;;;-5.10;99.90;;;;;;5068486;28;20298;-71
2021/12/27 00:20:43;;;;;;;11.35;6.38;;;-5.20;99.90;;;;;;5079497;28;20350;-72
2021/12/27 00:23:11;;;;;;;8.40;5.70;;;-5.20;99.90;;;;;;5062509;28;20270;-73
2021/12/27 00:25:41;;;;;;;14.30;6.70;;;-5.20;99.90;;;;;;5060473;28;20572;-71
2021/12/27 00:28:08;;;;;;;13.45;7.03;;;-5.20;99.90;;;;;;5060851;28;20201;-67
2021/12/27 00:30:38;;;;;;;13.00;7.90;;;-5.20;99.90;;;;;;5059205;28;20197;-67
2021/12/27 00:33:08;;;;;;;9.00;5.75;;;-5.30;99.90;;;;;;5059081;28;20232;-68
2021/12/27 00:35:36;;;;;;;10.82;6.38;;;-5.30;99.90;;;;;;5062905;28;20216;-67
2021/12/27 00:38:05;;;;;;;8.00;5.70;;;-5.30;99.90;;;;;;5065543;28;20249;-67
2021/12/27 00:40:33;;;;;;;10.95;6.40;;;-5.30;99.90;;;;;;5058615;28;20716;-67
2021/12/27 00:43:02;;;;;;;9.82;6.35;;;-5.30;99.90;;;;;;5057621;28;20201;-68
2021/12/27 00:45:30;;;;;;;10.23;6.00;;;-5.30;99.90;;;;;;5058205;28;20371;-68
2021/12/27 00:47:59;;;;;;;8.82;7.03;;;-5.30;99.90;;;;;;5058016;28;20296;-67
2021/12/27 00:50:27;;;;;;;12.98;6.57;;;-5.30;99.90;;;;;;5057996;28;20253;-67
2021/12/27 00:52:55;;;;;;;10.43;5.53;;;-5.20;99.90;;;;;;5058155;28;20197;-67
2021/12/27 00:55:23;;;;;;;13.65;7.45;;;-5.20;99.90;;;;;;5057993;28;20698;-68
2021/12/27 00:57:53;;;;;;;11.88;7.55;;;-5.10;99.90;;;;;;5058284;28;20686;-67
2021/12/27 01:00:25;;;;;;;9.90;6.35;;;-5.00;99.90;;;;;;5057678;28;20208;-67
2021/12/27 01:02:54;;;;;;;11.00;6.43;;;-4.80;99.90;;;;;;5058699;28;20263;-68
2021/12/27 01:05:24;;;;;;;11.50;6.45;;;-4.60;99.90;;;;;;5058108;28;20225;-68
2021/12/27 01:07:53;;;;;;;11.40;6.20;;;-4.40;99.90;;;;;;5058316;28;20620;-67
2021/12/27 01:10:48;;;;;;;15.20;6.95;;;-4.30;99.90;;;;;;5057741;28;20714;-67
2021/12/27 01:13:24;;;;;;;10.80;7.30;;;-4.30;99.90;;;;;;5057674;28;20450;-68
2021/12/27 01:16:10;;;;;;;8.82;6.55;;;-4.30;99.90;;;;;;5057803;28;20221;-68
2021/12/27 01:18:42;;;;;;;11.55;7.80;;;-4.30;99.90;;;;;;5057869;28;20201;-68
2021/12/27 01:21:10;;;;;;;12.40;7.70;;;-4.30;99.90;;;;;;5058017;28;20221;-71
2021/12/27 01:23:38;;;;;;;12.18;7.95;;;-4.20;99.90;;;;;;5057687;28;20204;-70
2021/12/27 01:26:07;;;;;;;20.05;8.30;;;-4.20;99.90;;;;;;5057820;28;20239;-68
2021/12/27 01:28:36;;;;;;;11.07;7.72;;;-4.10;99.90;;;;;;5058087;28;20201;-69
2021/12/27 01:31:05;;;;;;;12.68;7.32;;;-4.00;99.90;;;;;;5058229;28;20192;-72
2021/12/27 01:33:33;;;;;;;11.55;6.63;;;-3.90;99.90;;;;;;5058038;28;20205;-69
2021/12/27 01:36:04;;;;;;;14.00;7.95;;;-3.80;99.90;;;;;;5058146;28;20711;-69
2021/12/27 01:38:34;;;;;;;15.13;7.38;;;-3.80;99.90;;;;;;5062670;28;20201;-70
2021/12/27 01:41:05;;;;;;;13.88;7.82;;;-3.70;99.90;;;;;;5058189;28;20296;-71
2021/12/27 01:43:36;;;;;;;11.88;7.63;;;-3.70;99.90;;;;;;5058140;28;20215;-70
2021/12/27 01:46:08;;;;;;;15.07;8.38;;;-3.60;99.90;;;;;;5058456;28;20636;-68
2021/12/27 01:48:39;;;;;;;8.98;7.15;;;-3.60;99.90;;;;;;5058366;28;20204;-69
2021/12/27 01:51:09;;;;;;;12.65;7.85;;;-3.60;99.90;;;;;;5058855;28;20208;-69
2021/12/27 01:53:39;;;;;;;12.40;7.78;;;-3.50;99.90;;;;;;5058251;28;20846;-69
2021/12/27 01:56:10;;;;;;;12.48;7.38;;;-3.50;99.90;;;;;;5058180;28;20315;-69
2021/12/27 01:58:38;;;;;;;11.98;8.63;;;-3.50;99.90;;;;;;5058764;28;20224;-69
2021/12/27 02:01:09;;;;;;;16.02;8.77;;;-3.40;99.90;;;;;;5058102;28;20272;-68
2021/12/27 02:03:40;;;;;;;13.18;8.00;;;-3.50;99.90;;;;;;5058914;28;20297;-69
2021/12/27 02:06:09;;;;;;;14.82;9.02;;;-3.50;99.90;;;;;;5058278;28;20225;-69
2021/12/27 02:08:39;;;;;;;18.88;8.43;;;-3.60;99.90;;;;;;5058535;28;20201;-69
2021/12/27 02:11:09;;;;;;;14.48;9.32;;;-3.50;99.90;;;;;;5062028;28;20212;-70
2021/12/27 02:13:42;;;;;;;15.07;8.00;;;-3.50;99.90;;;;;;5062020;28;20205;-68
2021/12/27 02:16:14;;;;;;;17.92;8.93;;;-3.60;99.90;;;;;;5061744;28;20412;-68
2021/12/27 02:18:44;;;;;;;14.57;9.07;;;-3.60;99.90;;;;;;5062083;28;20266;-70
2021/12/27 02:21:13;;;;;;;18.27;8.55;;;-3.60;99.90;;;;;;5061421;28;20382;-69
2021/12/27 02:23:43;;;;;;;16.20;8.60;;;-3.50;99.90;;;;;;5061658;28;20576;-69
2021/12/27 02:26:12;;;;;;;18.75;10.52;;;-3.40;99.90;;;;;;5061898;28;20397;-69
2021/12/27 02:28:40;;;;;;;14.70;7.90;;;-3.40;99.90;;;;;;5062012;28;20572;-70
2021/12/27 02:31:08;;;;;;;13.82;9.05;;;-3.40;99.90;;;;;;5062199;28;20212;-70
2021/12/27 02:33:37;;;;;;;16.58;9.02;;;-3.30;99.90;;;;;;5061812;28;20196;-69
2021/12/27 02:36:06;;;;;;;13.88;8.85;;;-3.30;99.90;;;;;;5061674;28;20391;-69
2021/12/27 02:38:39;;;;;;;15.20;8.40;;;-3.30;99.90;;;;;;5061219;28;20291;-69
2021/12/27 02:41:08;;;;;;;13.63;9.23;;;-3.30;99.90;;;;;;5061148;28;20201;-69
2021/12/27 02:43:39;;;;;;;15.55;7.63;;;-3.30;99.90;;;;;;5061282;28;20372;-69
2021/12/27 02:46:09;;;;;;;21.23;9.38;;;-3.30;99.90;;;;;;5061527;28;20235;-69
2021/12/27 02:48:39;;;;;;;16.38;9.65;;;-3.30;99.90;;;;;;5067740;28;20220;-69
2021/12/27 02:51:08;;;;;;;19.63;9.25;;;-3.40;99.90;;;;;;5072591;28;20201;-69
2021/12/27 02:53:37;;;;;;;15.48;8.23;;;-3.50;99.90;;;;;;5060986;28;20208;-70
2021/12/27 02:56:06;;;;;;;14.90;9.48;;;-3.60;99.90;;;;;;5059679;28;20243;-68
2021/12/27 02:58:35;;;;;;;17.75;9.15;;;-3.70;99.90;;;;;;5061304;28;20197;-70
2021/12/27 03:01:06;;;;;;;15.02;9.40;;;-3.80;99.90;;;;;;5060775;28;20288;-66
2021/12/27 03:03:34;;;;;;;12.68;9.30;;;-3.90;99.90;;;;;;5060413;28;20331;-70
2021/12/27 03:06:02;;;;;;;13.00;8.27;;;-4.00;99.90;;;;;;5060461;28;20617;-72
2021/12/27 03:08:30;;;;;;;16.10;9.93;;;-4.00;99.90;;;;;;5060995;28;20484;-70
2021/12/27 03:11:01;;;;;;;13.82;10.40;;;-4.10;99.90;;;;;;5060460;28;20645;-68
2021/12/27 03:13:31;;;;;;;12.68;8.80;;;-4.10;99.90;;;;;;5060247;28;20224;-66
2021/12/27 03:16:01;;;;;;;11.35;8.55;;;-4.00;99.90;;;;;;5060691;28;20236;-66
2021/12/27 03:18:29;;;;;;;17.20;9.57;;;-3.90;99.90;;;;;;5060633;28;20201;-66
2021/12/27 03:20:57;;;;;;;17.33;9.15;;;-3.80;99.90;;;;;;5059137;28;20201;-67
2021/12/27 03:23:25;;;;;;;13.05;8.05;;;-3.70;99.90;;;;;;5060142;28;20340;-68
2021/12/27 03:25:54;;;;;;;19.65;9.55;;;-3.60;99.90;;;;;;5060202;28;20217;-67
2021/12/27 03:28:23;;;;;;;18.85;9.52;;;-3.50;99.90;;;;;;5060395;28;20296;-68
2021/12/27 03:30:52;;;;;;;16.27;10.93;;;-3.40;99.90;;;;;;5060155;28;20201;-68
2021/12/27 03:33:23;;;;;;;17.80;9.93;;;-3.30;99.90;;;;;;5060168;28;20201;-68
2021/12/27 03:36:00;;;;;;;14.95;9.65;;;-3.20;99.90;;;;;;5063588;28;20480;-68
2021/12/27 03:38:30;;;;;;;11.13;8.27;;;-3.20;99.90;;;;;;5061592;28;20601;-68
2021/12/27 03:40:58;;;;;;;17.52;9.00;;;-3.20;99.90;;;;;;5060345;28;20648;-68
2021/12/27 03:43:28;;;;;;;15.15;9.30;;;-3.30;99.90;;;;;;5059842;28;20221;-69
2021/12/27 03:45:56;;;;;;;12.10;8.68;;;-3.40;99.90;;;;;;5059715;28;20627;-68
2021/12/27 03:48:24;;;;;;;19.88;9.48;;;-3.50;99.90;;;;;;5059904;28;20205;-68
2021/12/27 03:50:52;;;;;;;16.50;10.40;;;-3.50;99.90;;;;;;5059563;28;20211;-69
2021/12/27 03:53:20;;;;;;;16.77;10.07;;;-3.50;99.90;;;;;;5060072;28;20201;-68
2021/12/27 03:55:48;;;;;;;14.95;9.75;;;-3.50;99.90;;;;;;5060066;28;20723;-68
2021/12/27 03:58:25;;;;;;;18.40;9.77;;;-3.50;99.90;;;;;;5059500;28;20710;-69
2021/12/27 04:03:37;;;;;;;18.05;10.10;;;-3.30;99.90;;;;;;5059444;28;20486;-67
2021/12/27 04:06:05;;;;;;;20.98;11.27;;;-3.20;99.90;;;;;;5059561;28;20304;-68
2021/12/27 04:08:33;;;;;;;18.77;10.60;;;-3.10;99.90;;;;;;5059195;28;20197;-69
2021/12/27 04:11:01;;;;;;;21.80;12.00;;;-3.00;99.90;;;;;;5058583;28;20231;-70
2021/12/27 04:13:29;;;;;;;17.10;9.82;;;-3.00;99.90;;;;;;5059220;28;20197;-69
2021/12/27 04:15:58;;;;;;;18.13;11.27;;;-3.00;99.90;;;;;;5059064;28;20231;-69
2021/12/27 04:18:26;;;;;;;25.80;11.00;;;-3.00;99.90;;;;;;5059368;28;20208;-68
2021/12/27 04:20:54;;;;;;;18.08;11.57;;;-3.00;99.90;;;;;;5059409;28;20201;-69
2021/12/27 04:23:22;;;;;;;18.27;9.75;;;-3.00;99.90;;;;;;5058906;28;20232;-69
2021/12/27 04:25:50;;;;;;;17.52;10.15;;;-3.00;99.90;;;;;;5058701;28;20221;-69
2021/12/27 04:28:19;;;;;;;16.88;10.00;;;-3.10;99.90;;;;;;5059230;28;20201;-70
2021/12/27 04:30:48;;;;;;;19.52;10.63;;;-3.10;99.90;;;;;;5060163;28;20201;-68
2021/12/27 04:33:17;;;;;;;16.15;9.27;;;-3.00;99.90;;;;;;5059585;28;20201;-69
2021/12/27 04:35:45;;;;;;;20.20;10.35;;;-2.90;99.90;;;;;;5062425;28;20289;-70
2021/12/27 04:38:13;;;;;;;20.95;11.05;;;-2.90;99.90;;;;;;5062805;28;20228;-66
2021/12/27 04:40:43;;;;;;;20.25;11.48;;;-2.80;99.90;;;;;;5060263;28;20204;-66
2021/12/27 04:43:13;;;;;;;19.05;11.60;;;-2.70;99.90;;;;;;5060420;28;20232;-68
2021/12/27 04:45:43;;;;;;;19.05;11.80;;;-2.70;99.90;;;;;;5060595;28;20232;-67
2021/12/27 04:48:11;;;;;;;19.73;11.93;;;-2.60;99.90;;;;;;5060576;28;20200;-67
2021/12/27 04:50:41;;;;;;;18.42;10.18;;;-2.60;99.90;;;;;;5059166;28;20201;-69
2021/12/27 04:53:09;;;;;;;17.95;10.45;;;-2.50;99.90;;;;;;5058934;28;20288;-67
2021/12/27 04:55:37;;;;;;;19.92;12.38;;;-2.50;99.90;;;;;;5058955;28;20216;-69
2021/12/27 04:58:07;;;;;;;22.83;12.38;;;-2.60;99.90;;;;;;5063388;28;20205;-68
2021/12/27 05:00:36;;;;;;;17.02;10.10;;;-2.50;99.90;;;;;;5059727;28;20201;-70
2021/12/27 05:03:04;;;;;;;27.65;11.68;;;-2.40;99.90;;;;;;5058637;28;20765;-69
2021/12/27 05:05:33;;;;;;;18.42;10.52;;;-2.40;99.90;;;;;;5058582;28;20221;-70
2021/12/27 05:08:03;;;;;;;20.70;12.73;;;-2.40;99.90;;;;;;5059027;28;20205;-70
2021/12/27 05:10:32;;;;;;;23.25;11.88;;;-2.40;99.90;;;;;;5058284;28;20197;-67
2021/12/27 05:13:00;;;;;;;17.05;10.23;;;-2.40;99.90;;;;;;5058435;28;20201;-69
2021/12/27 05:15:27;;;;;;;18.52;12.23;;;-2.40;99.90;;;;;;5067853;28;20225;-69
2021/12/27 05:17:55;;;;;;;17.92;10.60;;;-2.40;99.90;;;;;;5077994;28;20201;-68
2021/12/27 05:20:24;;;;;;;22.40;11.02;;;-2.30;99.90;;;;;;5058576;28;20306;-70
2021/12/27 05:22:51;;;;;;;21.80;12.10;;;-2.40;99.90;;;;;;5058052;28;20216;-67
2021/12/27 05:25:20;;;;;;;19.98;11.15;;;-2.40;99.90;;;;;;5058098;28;20633;-69
2021/12/27 05:27:48;;;;;;;18.30;11.15;;;-2.40;99.90;;;;;;5058047;28;20215;-66
2021/12/27 05:30:19;;;;;;;20.35;11.75;;;-2.40;99.90;;;;;;5058310;28;20476;-69
2021/12/27 05:32:47;;;;;;;19.88;11.98;;;-2.30;99.90;;;;;;5058049;28;20472;-67
2021/12/27 05:35:16;;;;;;;22.90;12.18;;;-2.30;99.90;;;;;;5058027;28;20227;-67
2021/12/27 05:37:45;;;;;;;21.25;12.27;;;-2.40;99.90;;;;;;5058725;28;20462;-68
2021/12/27 05:40:19;;;;;;;25.80;13.32;;;-2.50;99.90;;;;;;5058350;28;20288;-69
2021/12/27 05:42:50;;;;;;;19.90;12.18;;;-2.50;99.90;;;;;;5057895;28;20232;-68
2021/12/27 05:45:19;;;;;;;20.30;11.05;;;-2.50;99.90;;;;;;5056726;28;20243;-68
2021/12/27 05:47:48;;;;;;;21.13;12.77;;;-2.50;99.90;;;;;;5057963;28;20284;-67
2021/12/27 05:50:17;;;;;;;23.83;11.75;;;-2.50;99.90;;;;;;5057970;28;20236;-67
2021/12/27 05:52:45;;;;;;;21.70;12.18;;;-2.40;99.90;;;;;;5057870;28;20207;-67
2021/12/27 05:55:13;;;;;;;20.75;11.73;;;-2.50;99.90;;;;;;5057672;28;20293;-66
2021/12/27 05:57:41;;;;;;;22.08;12.10;;;-2.50;99.90;;;;;;5057622;28;20585;-69
2021/12/27 06:00:12;;;;;;;16.02;9.98;;;-2.40;99.90;;;;;;5057628;28;20614;-66
2021/12/27 06:02:40;;;;;;;18.75;10.68;;;-2.50;99.90;;;;;;5057693;28;20208;-69
2021/12/27 06:05:09;;;;;;;22.52;12.35;;;-2.40;99.90;;;;;;5056619;28;20775;-67
2021/12/27 06:07:37;;;;;;;19.35;10.85;;;-2.40;99.90;;;;;;5057513;28;20205;-71
2021/12/27 06:10:06;;;;;;;28.30;12.63;;;-2.30;99.90;;;;;;5058041;28;20205;-66
2021/12/27 06:12:34;;;;;;;26.90;12.85;;;-2.30;99.90;;;;;;5058221;28;20676;-68
2021/12/27 06:15:02;;;;;;;20.58;12.45;;;-2.30;99.90;;;;;;5058176;28;20455;-67
2021/12/27 06:17:32;;;;;;;24.95;13.68;;;-2.30;99.90;;;;;;5057860;28;20201;-67
2021/12/27 06:19:59;;;;;;;21.00;12.55;;;-2.40;99.90;;;;;;5058130;28;20226;-67
2021/12/27 06:22:28;;;;;;;22.08;11.50;;;-2.50;99.90;;;;;;5057141;28;20610;-67
2021/12/27 06:24:56;;;;;;;26.80;11.38;;;-2.50;99.90;;;;;;5057182;28;20232;-71
2021/12/27 06:27:23;;;;;;;21.48;11.68;;;-2.60;99.90;;;;;;5057479;28;20205;-68
2021/12/27 06:29:51;;;;;;;28.73;16.92;;;-2.60;99.90;;;;;;5057313;28;20209;-68
2021/12/27 06:32:19;;;;;;;22.70;12.93;;;-2.60;99.90;;;;;;5057956;28;20197;-70
2021/12/27 06:34:48;;;;;;;20.60;12.93;;;-2.70;99.90;;;;;;5058396;28;20264;-69
2021/12/27 06:37:16;;;;;;;25.95;14.50;;;-2.80;99.90;;;;;;5056903;28;20220;-67
2021/12/27 06:39:44;;;;;;;23.95;13.68;;;-2.80;99.90;;;;;;5057106;28;20353;-68
2021/12/27 06:42:11;;;;;;;21.58;11.60;;;-2.80;99.90;;;;;;5056909;28;20209;-67
2021/12/27 06:44:39;;;;;;;21.20;12.75;;;-2.90;99.90;;;;;;5056286;28;20221;-68
2021/12/27 06:47:07;;;;;;;31.55;13.35;;;-2.90;99.90;;;;;;5056662;28;20217;-65
2021/12/27 06:49:36;;;;;;;25.67;13.82;;;-3.00;99.90;;;;;;5056923;28;20208;-66
2021/12/27 06:52:06;;;;;;;23.17;12.52;;;-3.00;99.90;;;;;;5058377;28;20207;-67
2021/12/27 06:54:34;;;;;;;25.88;14.35;;;-3.00;99.90;;;;;;5056570;28;20369;-66
2021/12/27 06:57:02;;;;;;;23.27;14.27;;;-3.10;99.90;;;;;;5060033;28;20235;-65
2021/12/27 06:59:31;;;;;;;22.55;11.93;;;-3.10;99.90;;;;;;5060501;28;20381;-67
2021/12/27 07:01:58;;;;;;;25.10;12.93;;;-3.00;99.90;;;;;;5060600;28;20201;-71
2021/12/27 07:04:27;;;;;;;26.63;13.90;;;-3.00;99.90;;;;;;5059930;28;20213;-68
2021/12/27 07:06:55;;;;;;;24.95;12.80;;;-2.90;99.90;;;;;;5060731;28;20807;-71
2021/12/27 07:09:26;;;;;;;29.63;15.77;;;-2.90;99.90;;;;;;5060414;28;20201;-70
2021/12/27 07:11:54;;;;;;;25.23;15.57;;;-2.80;99.90;;;;;;5061506;28;20691;-71
2021/12/27 07:14:25;;;;;;;23.75;13.68;;;-2.70;99.90;;;;;;5061182;28;20207;-70
2021/12/27 07:16:53;;;;;;;17.90;12.65;;;-2.60;99.90;;;;;;5061464;28;20227;-67
2021/12/27 07:19:21;;;;;;;26.70;14.35;;;-2.50;99.90;;;;;;5060589;28;20204;-66
2021/12/27 07:21:49;;;;;;;26.83;12.98;;;-2.50;99.90;;;;;;5060775;28;20193;-65
2021/12/27 07:24:17;;;;;;;26.98;13.93;;;-2.50;99.90;;;;;;5061135;28;20476;-65
2021/12/27 07:26:46;;;;;;;24.20;12.93;;;-2.70;99.90;;;;;;5060999;28;20220;-64
2021/12/27 07:29:14;;;;;;;26.40;14.43;;;-2.80;99.90;;;;;;5060763;28;20193;-65
2021/12/27 07:31:43;;;;;;;23.60;13.43;;;-2.80;99.90;;;;;;5061073;28;20236;-67
2021/12/27 07:34:12;;;;;;;37.45;15.20;;;-2.90;99.90;;;;;;5060797;28;20235;-68
2021/12/27 07:36:40;;;;;;;29.88;13.55;;;-2.90;99.90;;;;;;5061314;28;20224;-67
2021/12/27 07:39:08;;;;;;;26.80;13.20;;;-2.90;99.90;;;;;;5061008;28;20201;-66
2021/12/27 07:41:36;;;;;;;26.95;14.40;;;-2.80;99.90;;;;;;5065911;28;20252;-69
2021/12/27 07:44:07;;;;;;;24.83;13.27;;;-2.70;99.90;;;;;;5079136;28;20332;-69
2021/12/27 07:46:40;;;;;;;25.08;14.60;;;-2.70;99.90;;;;;;5073721;28;20217;-68
2021/12/27 07:49:08;;;;;;;27.90;13.82;;;-2.60;99.90;;;;;;5061111;28;20725;-69
2021/12/27 07:51:36;;;;;;;28.42;14.20;;;-2.60;99.90;;;;;;5062667;28;20209;-70
2021/12/27 07:54:06;;;;;;;23.65;13.02;;;-2.50;99.90;;;;;;5064831;28;20255;-69
2021/12/27 07:56:33;;;;;;;24.17;14.43;;;-2.50;99.90;;;;;;5064022;28;20255;-68
2021/12/27 07:59:04;;;;;;;28.60;14.15;;;-2.60;99.90;;;;;;5076162;28;20212;-69
2021/12/27 08:01:34;;;;;;;28.77;16.13;;;-2.60;99.90;;;;;;5066392;28;20212;-68
2021/12/27 08:04:02;;;;;;;30.23;14.40;;;-2.70;99.90;;;;;;5063686;28;20284;-66
2021/12/27 08:06:31;;;;;;;28.27;15.35;;;-2.70;99.90;;;;;;5062698;28;20246;-67
2021/12/27 08:08:59;;;;;;;28.88;15.25;;;-2.60;99.90;;;;;;5064359;28;21048;-67
2021/12/27 08:11:27;;;;;;;22.08;13.93;;;-2.50;99.90;;;;;;5062758;28;20312;-67
2021/12/27 08:13:55;;;;;;;29.63;15.48;;;-2.40;99.90;;;;;;5062480;28;20197;-67
2021/12/27 08:16:24;;;;;;;28.10;16.08;;;-2.40;99.90;;;;;;5063014;28;20223;-70
2021/12/27 08:18:54;;;;;;;25.90;15.55;;;-2.40;99.90;;;;;;5060379;28;20758;-70
2021/12/27 08:21:23;;;;;;;28.42;14.70;;;-2.30;99.90;;;;;;5059900;28;20800;-70
2021/12/27 08:23:52;;;;;;;24.08;13.80;;;-2.30;99.90;;;;;;5060187;28;20219;-69
2021/12/27 08:26:20;;;;;;;32.70;15.90;;;-2.20;99.90;;;;;;5059074;28;20229;-69
2021/12/27 08:28:51;;;;;;;27.83;14.48;;;-2.10;99.90;;;;;;5060070;28;20201;-68
2021/12/27 08:31:19;;;;;;;28.25;15.13;;;-2.10;99.90;;;;;;5059782;28;20201;-68
2021/12/27 08:33:47;;;;;;;26.20;14.77;;;-2.00;99.90;;;;;;5059907;28;20899;-68
2021/12/27 08:36:16;;;;;;;23.25;14.63;;;-2.00;99.90;;;;;;5058942;28;20750;-68
2021/12/27 08:38:45;;;;;;;22.92;14.93;;;-2.00;99.90;;;;;;5060481;28;20205;-69
2021/12/27 08:41:13;;;;;;;31.95;14.82;;;-2.00;99.90;;;;;;5059359;28;20284;-68
2021/12/27 08:43:41;;;;;;;33.45;17.27;;;-1.90;99.90;;;;;;5059159;28;20412;-69
2021/12/27 08:46:10;;;;;;;25.50;16.25;;;-1.90;99.90;;;;;;5058094;28;20235;-70
2021/12/27 08:48:38;;;;;;;29.30;17.17;;;-1.90;99.90;;;;;;5059225;28;20275;-71
2021/12/27 08:51:06;;;;;;;24.67;14.68;;;-1.90;99.90;;;;;;5058541;28;20855;-69
2021/12/27 08:53:35;;;;;;;28.80;15.98;;;-1.80;99.90;;;;;;5058883;28;20207;-66
2021/12/27 08:56:03;;;;;;;29.30;15.90;;;-1.70;99.90;;;;;;5058493;28;20232;-71
2021/12/27 08:58:31;;;;;;;26.13;16.70;;;-1.60;99.90;;;;;;5058952;28;20248;-71
2021/12/27 09:00:58;;;;;;;27.55;16.38;;;-1.50;99.90;;;;;;5058645;28;20205;-67
2021/12/27 09:03:27;;;;;;;27.27;15.23;;;-1.40;99.90;;;;;;5058553;28;20219;-69
2021/12/27 09:05:55;;;;;;;28.98;16.65;;;-1.40;99.90;;;;;;5058130;28;20824;-69
2021/12/27 09:08:22;;;;;;;31.60;17.02;;;-1.30;99.90;;;;;;5059160;28;20226;-70
2021/12/27 09:10:51;;;;;;;30.17;16.50;;;-1.20;99.90;;;;;;5058607;28;20199;-70
2021/12/27 09:13:19;;;;;;;30.65;16.90;;;-1.00;99.90;;;;;;5058126;28;20213;-68
2021/12/27 09:15:47;;;;;;;31.40;16.15;;;-0.90;99.90;;;;;;5057994;28;20801;-66
2021/12/27 09:18:15;;;;;;;27.00;15.50;;;-0.90;99.90;;;;;;5058276;28;20204;-67
2021/12/27 09:20:42;;;;;;;28.50;16.48;;;-0.80;99.90;;;;;;5057358;28;20201;-68
2021/12/27 09:23:10;;;;;;;30.85;17.50;;;-0.80;99.90;;;;;;5059745;28;20228;-68
2021/12/27 09:25:38;;;;;;;25.60;15.98;;;-0.80;99.90;;;;;;5063829;28;20221;-67
2021/12/27 09:28:07;;;;;;;31.17;16.67;;;-0.80;99.90;;;;;;5058425;28;20200;-67
2021/12/27 09:30:35;;;;;;;29.30;16.55;;;-0.80;99.90;;;;;;5060678;28;20399;-67
2021/12/27 09:33:04;;;;;;;31.00;16.58;;;-0.80;99.90;;;;;;5058786;28;20204;-67
2021/12/27 09:35:32;;;;;;;27.38;16.02;;;-0.80;99.90;;;;;;5057954;28;20217;-67
2021/12/27 09:38:00;;;;;;;29.42;15.48;;;-0.80;99.90;;;;;;5058125;28;20688;-67
2021/12/27 09:40:28;;;;;;;26.92;15.07;;;-0.80;99.90;;;;;;5057971;28;20575;-68
2021/12/27 09:42:56;;;;;;;30.83;16.83;;;-0.80;99.90;;;;;;5058289;28;20301;-68
2021/12/27 09:45:26;;;;;;;33.05;17.48;;;-0.80;99.90;;;;;;5058489;28;20223;-68
2021/12/27 09:47:54;;;;;;;29.00;16.58;;;-0.80;99.90;;;;;;5059093;28;20211;-67
2021/12/27 09:50:24;;;;;;;29.60;15.43;;;-0.80;99.90;;;;;;5058587;28;20825;-67
2021/12/27 09:52:52;;;;;;;34.83;17.80;;;-0.80;99.90;;;;;;5058106;28;20201;-69
2021/12/27 09:55:20;;;;;;;35.13;17.50;;;-0.70;99.90;;;;;;5059333;28;20232;-67
2021/12/27 09:57:48;;;;;;;29.48;17.52;;;-0.70;99.90;;;;;;5059664;28;20211;-67
2021/12/27 10:00:17;;;;;;;32.47;18.90;;;-0.70;99.90;;;;;;5060484;28;20679;-67
2021/12/27 10:02:50;;;;;;;32.90;18.92;;;-0.70;99.90;;;;;;5061211;28;20347;-69
2021/12/27 10:05:20;;;;;;;30.40;17.67;;;-0.70;99.90;;;;;;5060471;28;20225;-68
2021/12/27 10:07:48;;;;;;;30.17;16.48;;;-0.60;99.90;;;;;;5061990;28;20258;-68
2021/12/27 10:10:23;;;;;;;34.15;16.88;;;-0.70;99.90;;;;;;5085646;28;20204;-68
2021/12/27 10:12:50;;;;;;;27.85;17.00;;;-0.60;99.90;;;;;;5068351;28;20778;-68
2021/12/27 10:15:20;;;;;;;28.58;17.73;;;-0.60;99.90;;;;;;5058141;28;20221;-68
2021/12/27 10:17:50;;;;;;;32.70;17.42;;;-0.50;99.90;;;;;;5058583;28;20189;-68
2021/12/27 10:20:21;;;;;;;34.17;18.63;;;-0.40;99.90;;;;;;5057474;28;20216;-68
2021/12/27 10:22:52;;;;;;;36.35;18.58;;;-0.40;99.90;;;;;;5058294;28;20205;-68
2021/12/27 10:25:21;;;;;;;34.35;18.30;;;-0.40;99.90;;;;;;5057905;28;20279;-68
2021/12/27 10:27:53;;;;;;;27.08;17.15;;;-0.40;99.90;;;;;;5058134;28;20228;-68
2021/12/27 10:30:23;;;;;;;31.67;17.65;;;-0.40;99.90;;;;;;5058755;28;20207;-67
2021/12/27 10:33:06;;;;;;;29.77;18.77;;;-0.40;99.90;;;;;;5062361;28;20842;-67
2021/12/27 10:35:35;;;;;;;29.15;18.17;;;-0.40;99.90;;;;;;5062430;28;20773;-68
2021/12/27 10:38:15;;;;;;;31.90;16.80;;;-0.40;99.90;;;;;;5062345;28;20234;-68
2021/12/27 10:40:51;;;;;;;28.88;17.92;;;-0.40;99.90;;;;;;5061765;28;20205;-66
2021/12/27 10:43:35;;;;;;;35.50;18.50;;;-0.40;99.90;;;;;;5061062;28;20211;-67
2021/12/27 10:46:05;;;;;;;34.47;19.77;;;-0.40;99.90;;;;;;5061052;28;20691;-66
2021/12/27 10:48:36;;;;;;;31.83;18.63;;;-0.40;99.90;;;;;;5060926;28;20201;-67
2021/12/27 10:51:04;;;;;;;32.70;19.92;;;-0.40;99.90;;;;;;5061911;28;20292;-68
2021/12/27 10:53:48;;;;;;;35.63;19.48;;;-0.40;99.90;;;;;;5060639;28;20221;-68
2021/12/27 10:56:20;;;;;;;37.30;19.98;;;-0.40;99.90;;;;;;5059103;28;20358;-67
2021/12/27 10:58:49;;;;;;;36.90;20.52;;;-0.40;99.90;;;;;;5060767;28;20953;-68
2021/12/27 11:01:19;;;;;;;36.60;19.92;;;-0.40;99.90;;;;;;5061385;28;20204;-67
2021/12/27 11:03:51;;;;;;;35.03;19.45;;;-0.40;99.90;;;;;;5060669;28;20211;-66
2021/12/27 11:06:20;;;;;;;33.10;20.02;;;-0.40;99.90;;;;;;5073286;28;20221;-65
2021/12/27 11:08:49;;;;;;;38.33;19.52;;;-0.30;99.90;;;;;;5061065;28;20404;-68
2021/12/27 11:11:17;;;;;;;37.97;21.42;;;-0.30;99.90;;;;;;5061639;28;20207;-66
2021/12/27 11:13:47;;;;;;;34.22;20.30;;;-0.10;99.90;;;;;;5060899;28;20197;-66
2021/12/27 11:16:15;;;;;;;38.25;21.60;;;-0.10;99.90;;;;;;5061244;28;20225;-66
2021/12/27 11:18:44;;;;;;;29.17;19.33;;;-0.10;99.90;;;;;;5061721;28;20208;-67
2021/12/27 11:21:16;;;;;;;35.40;21.80;;;0.00;99.90;;;;;;5062919;28;20211;-66
2021/12/27 11:23:46;;;;;;;33.38;20.63;;;0.10;99.90;;;;;;5061487;28;20409;-65
2021/12/27 11:26:31;;;;;;;34.88;20.13;;;0.20;99.90;;;;;;5061473;28;20847;-68
2021/12/27 11:29:14;;;;;;;38.00;20.15;;;0.30;99.90;;;;;;5060133;28;20205;-67
2021/12/27 11:31:43;;;;;;;37.38;20.65;;;0.20;99.90;;;;;;5061485;28;20201;-66
2021/12/27 11:34:13;;;;;;;44.33;23.20;;;0.20;99.90;;;;;;5060218;28;20235;-68
2021/12/27 11:36:46;;;;;;;36.95;19.98;;;0.30;99.90;;;;;;5060610;28;20304;-66
2021/12/27 11:39:24;;;;;;;32.67;20.63;;;0.30;99.90;;;;;;5060530;28;20205;-67
2021/12/27 11:42:01;;;;;;;36.33;20.45;;;0.30;99.90;;;;;;5059914;28;20243;-66
2021/12/27 11:44:38;;;;;;;40.50;21.75;;;0.20;99.90;;;;;;5060071;28;20208;-66
2021/12/27 11:47:07;;;;;;;33.75;20.98;;;0.20;99.90;;;;;;5060406;28;20221;-66
2021/12/27 11:49:45;;;;;;;35.42;22.83;;;0.20;99.90;;;;;;5060136;28;20209;-68
2021/12/27 11:52:20;;;;;;;30.52;19.80;;;0.20;99.90;;;;;;5060193;28;20205;-65
2021/12/27 11:54:54;;;;;;;40.28;22.17;;;0.20;99.90;;;;;;5059467;28;20208;-66
2021/12/27 11:57:48;;;;;;;31.65;18.73;;;0.20;99.90;;;;;;5058220;28;20197;-68
2021/12/27 12:00:37;;;;;;;38.53;21.40;;;0.20;99.90;;;;;;5060028;28;20207;-64
2021/12/27 12:03:37;;;;;;;34.42;21.27;;;0.30;99.90;;;;;;5060589;28;20335;-65
2021/12/27 12:06:06;;;;;;;36.35;21.15;;;0.30;99.90;;;;;;5061881;28;20217;-67
2021/12/27 12:08:51;;;;;;;32.63;21.05;;;0.20;99.90;;;;;;5060503;28;20212;-68
2021/12/27 12:11:31;;;;;;;36.33;21.05;;;0.10;99.90;;;;;;5060179;28;20709;-68
2021/12/27 12:14:29;;;;;;;42.72;22.02;;;0.10;99.90;;;;;;5059744;28;20206;-67
2021/12/27 12:16:58;;;;;;;40.63;22.10;;;0.20;99.90;;;;;;5059674;28;20912;-65
2021/12/27 12:19:37;;;;;;;38.90;21.80;;;0.20;99.90;;;;;;5059617;28;20863;-67
2021/12/27 12:22:07;;;;;;;33.80;20.65;;;0.30;99.90;;;;;;5059875;28;20358;-69
2021/12/27 12:24:40;;;;;;;45.78;21.60;;;0.30;99.90;;;;;;5060473;28;20201;-66
2021/12/27 12:27:10;;;;;;;38.25;23.20;;;0.30;99.90;;;;;;5059617;28;20231;-67
2021/12/27 12:29:40;;;;;;;42.10;24.20;;;0.40;99.90;;;;;;5062031;28;20208;-71
2021/12/27 12:32:11;;;;;;;37.78;22.38;;;0.40;99.90;;;;;;5062880;28;20200;-66
2021/12/27 12:34:40;;;;;;;42.47;22.13;;;0.40;99.90;;;;;;5062936;28;20205;-70
2021/12/27 12:37:10;;;;;;;33.47;20.20;;;0.50;99.90;;;;;;5063929;28;20217;-68
2021/12/27 12:39:43;;;;;;;41.38;22.00;;;0.50;99.90;;;;;;5070207;28;20205;-67
2021/12/27 12:42:13;;;;;;;40.35;21.85;;;0.60;99.90;;;;;;5069292;28;20225;-67
2021/12/27 12:44:49;;;;;;;36.25;20.02;;;0.50;99.90;;;;;;5060086;28;20250;-66
2021/12/27 12:47:20;;;;;;;33.63;20.63;;;0.40;99.90;;;;;;5060966;28;20217;-67